createdAt,value
2016-10-10T00:00:32.315Z,6.93
2016-10-10T00:01:32.326Z,6.86
2016-10-10T00:02:32.353Z,6.9
2016-10-10T00:03:32.354Z,6.87
2016-10-10T00:04:32.376Z,6.82
2016-10-10T00:05:32.079Z,6.78
2016-10-10T00:06:32.425Z,6.83
2016-10-10T00:07:32.427Z,6.7
2016-10-10T00:08:32.521Z,6.72
2016-10-10T00:09:32.466Z,6.64
2016-10-10T00:10:32.198Z,6.59
2016-10-10T00:11:32.497Z,6.6
2016-10-10T00:12:32.505Z,6.6
2016-10-10T00:13:32.520Z,6.6
2016-10-10T00:14:32.537Z,6.54
2016-10-10T00:15:32.264Z,6.46
2016-10-10T00:16:32.577Z,6.56
2016-10-10T00:17:32.595Z,6.38
2016-10-10T00:18:32.613Z,6.41
2016-10-10T00:19:32.636Z,6.32
2016-10-10T00:20:32.636Z,6.35
2016-10-10T00:21:32.665Z,6.34
2016-10-10T00:22:32.673Z,6.34
2016-10-10T00:23:32.694Z,6.34
2016-10-10T00:24:32.716Z,6.34
2016-10-10T00:25:32.729Z,6.34
2016-10-10T00:26:32.752Z,6.29
2016-10-10T00:27:32.774Z,6.28
2016-10-10T00:28:32.777Z,6.32
2016-10-10T00:29:32.474Z,6.25
2016-10-10T00:30:32.817Z,6.29
2016-10-10T00:31:32.838Z,6.34
2016-10-10T00:32:32.867Z,6.32
2016-10-10T00:33:32.867Z,6.38
2016-10-10T00:34:32.877Z,6.41
2016-10-10T00:35:32.893Z,6.41
2016-10-10T00:36:32.906Z,6.41
2016-10-10T00:37:32.939Z,6.41
2016-10-10T00:38:32.938Z,6.44
2016-10-10T00:39:32.955Z,6.36
2016-10-10T00:40:32.976Z,6.34
2016-10-10T00:41:32.996Z,6.31
2016-10-10T00:42:33.020Z,6.36
2016-10-10T00:43:32.717Z,6.25
2016-10-10T00:44:33.029Z,6.28
2016-10-10T00:45:33.061Z,6.29
2016-10-10T00:46:33.088Z,6.19
2016-10-10T00:47:32.785Z,6.12
2016-10-10T00:48:33.108Z,6.13
2016-10-10T00:49:33.130Z,6.12
2016-10-10T00:50:33.156Z,6.09
2016-10-10T00:51:32.847Z,6.01
2016-10-10T00:52:33.169Z,6.12
2016-10-10T00:53:33.230Z,6.12
2016-10-10T00:54:33.198Z,5.94
2016-10-10T00:55:32.936Z,6.05
2016-10-10T00:56:33.240Z,5.99
2016-10-10T00:57:33.252Z,6.06
2016-10-10T00:58:33.264Z,6.13
2016-10-10T00:59:33.376Z,6.06
2016-10-10T01:00:33.304Z,6.05
2016-10-10T01:01:33.417Z,6.13
2016-10-10T01:02:33.341Z,6.07
2016-10-10T01:03:33.444Z,6.1
2016-10-10T01:04:33.371Z,6.12
2016-10-10T01:05:33.640Z,6.12
2016-10-10T01:06:33.410Z,6.1
2016-10-10T01:07:33.467Z,6.16
2016-10-10T01:08:33.445Z,6.16
2016-10-10T01:09:33.451Z,6.19
2016-10-10T01:10:33.465Z,6.25
2016-10-10T01:11:33.480Z,6.2
2016-10-10T01:12:33.490Z,6.25
2016-10-10T01:13:33.511Z,6.26
2016-10-10T01:14:33.703Z,6.2
2016-10-10T01:15:33.660Z,6.22
2016-10-10T01:16:33.605Z,6.15
2016-10-10T01:17:33.576Z,6.19
2016-10-10T01:18:33.640Z,6.2
2016-10-10T01:19:33.660Z,6.17
2016-10-10T01:20:33.669Z,6.12
2016-10-10T01:21:33.660Z,6.07
2016-10-10T01:22:33.663Z,6.06
2016-10-10T01:23:33.664Z,6.09
2016-10-10T01:24:33.689Z,6.07
2016-10-10T01:25:33.736Z,6.1
2016-10-10T01:26:33.739Z,5.98
2016-10-10T01:27:33.852Z,6.09
2016-10-10T01:28:33.839Z,6.1
2016-10-10T01:29:33.861Z,6.1
2016-10-10T01:30:33.878Z,6.1
2016-10-10T01:31:33.820Z,6.17
2016-10-10T01:32:33.931Z,6.12
2016-10-10T01:33:33.551Z,6.17
2016-10-10T01:34:33.858Z,6.17
2016-10-10T01:35:33.890Z,6.17
2016-10-10T01:36:33.890Z,6.26
2016-10-10T01:37:33.602Z,6.36
2016-10-10T01:38:33.922Z,6.32
2016-10-10T01:39:33.941Z,6.31
2016-10-10T01:40:33.980Z,6.32
2016-10-10T01:41:33.980Z,6.35
2016-10-10T01:42:34.005Z,6.32
2016-10-10T01:43:34.060Z,6.32
2016-10-10T01:44:34.041Z,6.29
2016-10-10T01:45:34.134Z,6.22
2016-10-10T01:46:33.798Z,6.29
2016-10-10T01:47:34.084Z,6.31
2016-10-10T01:48:33.775Z,6.29
2016-10-10T01:49:34.105Z,6.31
2016-10-10T01:50:34.119Z,6.31
2016-10-10T01:51:34.133Z,6.28
2016-10-10T01:52:34.150Z,6.29
2016-10-10T01:53:34.171Z,6.34
2016-10-10T01:54:34.185Z,6.22
2016-10-10T01:55:34.201Z,6.19
2016-10-10T01:56:33.961Z,6.09
2016-10-10T01:57:34.230Z,6.12
2016-10-10T01:58:34.406Z,6.1
2016-10-10T01:59:34.265Z,6.07
2016-10-10T02:00:34.341Z,6.01
2016-10-10T02:01:34.307Z,6.02
2016-10-10T02:02:34.321Z,6.06
2016-10-10T02:03:34.330Z,6.02
2016-10-10T02:04:34.345Z,6.02
2016-10-10T02:05:34.371Z,5.94
2016-10-10T02:06:34.598Z,5.91
2016-10-10T02:07:34.094Z,5.95
2016-10-10T02:08:34.421Z,5.91
2016-10-10T02:09:34.451Z,5.91
2016-10-10T02:10:34.445Z,5.87
2016-10-10T02:11:34.582Z,5.77
2016-10-10T02:12:34.489Z,5.77
2016-10-10T02:13:34.539Z,5.73
2016-10-10T02:14:34.520Z,5.77
2016-10-10T02:15:34.541Z,5.83
2016-10-10T02:16:34.598Z,5.77
2016-10-10T02:17:34.570Z,5.77
2016-10-10T02:18:34.586Z,5.72
2016-10-10T02:19:34.600Z,5.74
2016-10-10T02:20:34.614Z,5.69
2016-10-10T02:21:34.320Z,5.65
2016-10-10T02:22:34.336Z,5.69
2016-10-10T02:23:34.361Z,5.67
2016-10-10T02:24:34.680Z,5.59
2016-10-10T02:25:34.704Z,5.59
2016-10-10T02:26:34.710Z,5.51
2016-10-10T02:27:34.729Z,5.54
2016-10-10T02:28:34.739Z,5.54
2016-10-10T02:29:34.461Z,5.54
2016-10-10T02:30:34.781Z,5.43
2016-10-10T02:31:34.800Z,5.44
2016-10-10T02:32:34.803Z,5.44
2016-10-10T02:33:34.819Z,5.43
2016-10-10T02:34:34.851Z,5.46
2016-10-10T02:35:34.551Z,5.47
2016-10-10T02:36:34.880Z,5.46
2016-10-10T02:37:34.888Z,5.54
2016-10-10T02:38:34.909Z,5.46
2016-10-10T02:39:34.976Z,5.47
2016-10-10T02:40:34.941Z,5.44
2016-10-10T02:41:34.966Z,5.4
2016-10-10T02:42:34.968Z,5.31
2016-10-10T02:43:34.990Z,5.34
2016-10-10T02:44:34.998Z,5.37
2016-10-10T02:45:35.012Z,5.26
2016-10-10T02:46:35.040Z,5.29
2016-10-10T02:47:34.743Z,5.28
2016-10-10T02:48:35.069Z,5.31
2016-10-10T02:49:35.078Z,5.26
2016-10-10T02:50:35.085Z,5.28
2016-10-10T02:51:35.120Z,5.29
2016-10-10T02:52:35.126Z,5.31
2016-10-10T02:53:34.829Z,5.33
2016-10-10T02:54:35.160Z,5.25
2016-10-10T02:55:35.181Z,5.34
2016-10-10T02:56:35.232Z,5.36
2016-10-10T02:57:35.210Z,5.31
2016-10-10T02:58:35.219Z,5.33
2016-10-10T02:59:35.259Z,5.43
2016-10-10T03:00:35.255Z,5.4
2016-10-10T03:01:35.342Z,5.51
2016-10-10T03:02:35.291Z,5.47
2016-10-10T03:03:35.313Z,5.47
2016-10-10T03:04:35.333Z,5.36
2016-10-10T03:05:35.328Z,5.46
2016-10-10T03:06:35.450Z,5.37
2016-10-10T03:07:35.469Z,5.43
2016-10-10T03:08:35.389Z,5.44
2016-10-10T03:09:35.459Z,5.43
2016-10-10T03:10:35.422Z,5.33
2016-10-10T03:11:35.480Z,5.29
2016-10-10T03:12:35.127Z,5.29
2016-10-10T03:13:35.485Z,5.33
2016-10-10T03:14:35.469Z,5.28
2016-10-10T03:15:35.491Z,5.16
2016-10-10T03:16:35.210Z,5.22
2016-10-10T03:17:35.667Z,5.15
2016-10-10T03:18:35.551Z,5.12
2016-10-10T03:19:35.564Z,5.07
2016-10-10T03:20:35.600Z,4.92
2016-10-10T03:21:35.631Z,4.95
2016-10-10T03:22:35.629Z,5.01
2016-10-10T03:23:35.687Z,4.87
2016-10-10T03:24:35.642Z,4.92
2016-10-10T03:25:35.690Z,4.97
2016-10-10T03:26:35.677Z,4.89
2016-10-10T03:27:35.690Z,4.86
2016-10-10T03:28:35.719Z,4.9
2016-10-10T03:29:35.706Z,4.9
2016-10-10T03:30:35.744Z,4.94
2016-10-10T03:31:35.750Z,4.9
2016-10-10T03:32:35.768Z,4.71
2016-10-10T03:33:35.829Z,4.75
2016-10-10T03:34:35.890Z,4.75
2016-10-10T03:35:35.875Z,4.66
2016-10-10T03:36:35.845Z,4.75
2016-10-10T03:37:35.852Z,4.66
2016-10-10T03:38:35.860Z,4.74
2016-10-10T03:39:35.888Z,4.67
2016-10-10T03:40:35.890Z,4.66
2016-10-10T03:41:35.901Z,4.63
2016-10-10T03:42:35.711Z,4.63
2016-10-10T03:43:35.940Z,4.64
2016-10-10T03:44:35.950Z,4.64
2016-10-10T03:45:36.099Z,4.64
2016-10-10T03:46:35.997Z,4.63
2016-10-10T03:47:35.999Z,4.57
2016-10-10T03:48:36.133Z,4.63
2016-10-10T03:49:36.116Z,4.67
2016-10-10T03:50:35.767Z,4.61
2016-10-10T03:51:36.060Z,4.64
2016-10-10T03:52:35.813Z,4.63
2016-10-10T03:53:36.128Z,4.68
2016-10-10T03:54:35.799Z,4.64
2016-10-10T03:55:36.127Z,4.63
2016-10-10T03:56:36.130Z,4.63
2016-10-10T03:57:36.145Z,4.56
2016-10-10T03:58:36.162Z,4.74
2016-10-10T03:59:36.171Z,4.75
2016-10-10T04:00:36.199Z,4.79
2016-10-10T04:01:35.908Z,4.67
2016-10-10T04:02:36.236Z,4.68
2016-10-10T04:03:36.268Z,4.64
2016-10-10T04:04:35.648Z,4.67
2016-10-10T04:05:35.969Z,4.66
2016-10-10T04:06:35.972Z,4.63
2016-10-10T04:07:36.359Z,4.5
2016-10-10T04:08:36.319Z,4.5
2016-10-10T04:09:36.025Z,4.53
2016-10-10T04:10:36.074Z,4.52
2016-10-10T04:11:36.358Z,4.53
2016-10-10T04:12:36.116Z,4.52
2016-10-10T04:13:36.407Z,4.58
2016-10-10T04:14:36.407Z,4.57
2016-10-10T04:15:36.420Z,4.63
2016-10-10T04:16:36.254Z,4.6
2016-10-10T04:17:36.148Z,4.66
2016-10-10T04:18:36.511Z,4.61
2016-10-10T04:19:36.489Z,4.67
2016-10-10T04:20:36.545Z,4.63
2016-10-10T04:21:36.513Z,4.64
2016-10-10T04:22:36.540Z,4.63
2016-10-10T04:23:36.533Z,4.66
2016-10-10T04:24:35.953Z,4.61
2016-10-10T04:25:36.577Z,4.76
2016-10-10T04:26:36.288Z,4.75
2016-10-10T04:27:36.308Z,4.78
2016-10-10T04:28:36.641Z,4.9
2016-10-10T04:29:36.634Z,4.9
2016-10-10T04:30:36.861Z,4.9
2016-10-10T04:31:36.737Z,5
2016-10-10T04:32:36.676Z,4.98
2016-10-10T04:33:36.779Z,5
2016-10-10T04:34:36.732Z,5.01
2016-10-10T04:35:36.429Z,4.98
2016-10-10T04:36:36.742Z,4.95
2016-10-10T04:37:36.804Z,4.89
2016-10-10T04:38:36.785Z,4.94
2016-10-10T04:39:36.500Z,4.92
2016-10-10T04:40:36.516Z,4.76
2016-10-10T04:41:36.833Z,4.71
2016-10-10T04:42:36.836Z,4.75
2016-10-10T04:43:36.548Z,4.63
2016-10-10T04:44:36.871Z,4.74
2016-10-10T04:45:36.889Z,4.74
2016-10-10T04:46:36.608Z,4.61
2016-10-10T04:47:36.927Z,4.7
2016-10-10T04:48:36.948Z,4.71
2016-10-10T04:49:36.632Z,4.76
2016-10-10T04:50:36.982Z,4.71
2016-10-10T04:51:36.988Z,4.87
2016-10-10T04:52:36.743Z,4.87
2016-10-10T04:53:37.009Z,4.94
2016-10-10T04:54:37.051Z,4.98
2016-10-10T04:55:37.047Z,5.01
2016-10-10T04:56:37.070Z,4.89
2016-10-10T04:57:37.080Z,4.95
2016-10-10T04:58:37.098Z,4.98
2016-10-10T04:59:37.180Z,4.97
2016-10-10T05:00:37.129Z,4.95
2016-10-10T05:01:37.191Z,4.98
2016-10-10T05:02:37.161Z,5.04
2016-10-10T05:03:37.188Z,5
2016-10-10T05:04:37.199Z,5.04
2016-10-10T05:05:36.891Z,5.01
2016-10-10T05:06:36.912Z,5.08
2016-10-10T05:07:37.230Z,5.13
2016-10-10T05:08:37.247Z,5.1
2016-10-10T05:09:37.259Z,5.15
2016-10-10T05:10:37.268Z,5.22
2016-10-10T05:11:37.284Z,5.26
2016-10-10T05:12:37.399Z,5.29
2016-10-10T05:13:37.319Z,5.31
2016-10-10T05:14:37.403Z,5.4
2016-10-10T05:15:37.358Z,5.44
2016-10-10T05:16:37.361Z,5.47
2016-10-10T05:17:37.380Z,5.44
2016-10-10T05:18:37.094Z,5.47
2016-10-10T05:19:37.427Z,5.46
2016-10-10T05:20:37.438Z,5.41
2016-10-10T05:21:37.448Z,5.47
2016-10-10T05:22:37.469Z,5.47
2016-10-10T05:23:37.171Z,5.52
2016-10-10T05:24:37.204Z,5.52
2016-10-10T05:25:37.520Z,5.64
2016-10-10T05:26:37.590Z,5.59
2016-10-10T05:27:37.650Z,5.7
2016-10-10T05:28:37.569Z,5.73
2016-10-10T05:29:37.712Z,5.64
2016-10-10T05:30:37.610Z,5.69
2016-10-10T05:31:37.636Z,5.69
2016-10-10T05:32:37.637Z,5.81
2016-10-10T05:33:37.659Z,5.83
2016-10-10T05:34:37.669Z,5.74
2016-10-10T05:35:37.659Z,5.81
2016-10-10T05:36:37.388Z,5.83
2016-10-10T05:37:37.739Z,5.73
2016-10-10T05:38:37.920Z,5.76
2016-10-10T05:39:37.860Z,5.81
2016-10-10T05:40:37.438Z,5.77
2016-10-10T05:41:37.781Z,5.73
2016-10-10T05:42:37.828Z,5.74
2016-10-10T05:43:37.588Z,5.64
2016-10-10T05:44:37.830Z,5.64
2016-10-10T05:45:37.952Z,5.61
2016-10-10T05:46:37.853Z,5.62
2016-10-10T05:47:37.566Z,5.58
2016-10-10T05:48:37.891Z,5.59
2016-10-10T05:49:37.896Z,5.58
2016-10-10T05:50:37.611Z,5.49
2016-10-10T05:51:37.933Z,5.55
2016-10-10T05:52:37.730Z,5.65
2016-10-10T05:53:38.078Z,5.56
2016-10-10T05:54:37.998Z,5.61
2016-10-10T05:55:38.065Z,5.61
2016-10-10T05:56:38.117Z,5.58
2016-10-10T05:57:37.807Z,5.59
2016-10-10T05:58:38.027Z,5.56
2016-10-10T05:59:38.059Z,5.7
2016-10-10T06:00:37.808Z,5.64
2016-10-10T06:01:37.777Z,5.7
2016-10-10T06:02:37.788Z,5.76
2016-10-10T06:03:38.122Z,5.74
2016-10-10T06:04:38.138Z,5.7
2016-10-10T06:05:38.148Z,5.72
2016-10-10T06:06:38.174Z,5.7
2016-10-10T06:07:38.196Z,5.79
2016-10-10T06:08:38.282Z,5.76
2016-10-10T06:09:38.218Z,5.73
2016-10-10T06:10:38.349Z,5.9
2016-10-10T06:11:38.261Z,5.88
2016-10-10T06:12:37.979Z,5.92
2016-10-10T06:13:38.374Z,6.02
2016-10-10T06:14:38.312Z,6.12
2016-10-10T06:15:38.310Z,6.12
2016-10-10T06:16:38.330Z,6.12
2016-10-10T06:17:38.350Z,6.19
2016-10-10T06:18:38.357Z,6.15
2016-10-10T06:19:38.069Z,6.19
2016-10-10T06:20:38.395Z,6.22
2016-10-10T06:21:38.523Z,6.29
2016-10-10T06:22:38.110Z,6.35
2016-10-10T06:23:38.124Z,6.41
2016-10-10T06:24:38.463Z,6.53
2016-10-10T06:25:38.480Z,6.62
2016-10-10T06:26:38.500Z,6.57
2016-10-10T06:27:38.499Z,6.59
2016-10-10T06:28:38.523Z,6.62
2016-10-10T06:29:37.931Z,6.7
2016-10-10T06:30:38.240Z,6.68
2016-10-10T06:31:38.577Z,6.62
2016-10-10T06:32:38.582Z,6.64
2016-10-10T06:33:38.608Z,6.72
2016-10-10T06:34:38.653Z,6.71
2016-10-10T06:35:38.629Z,6.77
2016-10-10T06:36:38.879Z,6.85
2016-10-10T06:37:38.687Z,6.8
2016-10-10T06:38:38.718Z,6.89
2016-10-10T06:39:38.709Z,6.86
2016-10-10T06:40:38.723Z,6.96
2016-10-10T06:41:38.424Z,6.97
2016-10-10T06:42:38.432Z,7.04
2016-10-10T06:43:38.787Z,7.13
2016-10-10T06:44:38.790Z,7.15
2016-10-10T06:45:39.002Z,7.26
2016-10-10T06:46:38.814Z,7.22
2016-10-10T06:47:38.841Z,7.37
2016-10-10T06:48:38.861Z,7.36
2016-10-10T06:49:38.868Z,7.44
2016-10-10T06:50:38.888Z,7.41
2016-10-10T06:51:38.907Z,7.4
2016-10-10T06:52:38.285Z,7.4
2016-10-10T06:53:38.627Z,7.41
2016-10-10T06:54:38.646Z,7.43
2016-10-10T06:55:38.989Z,7.5
2016-10-10T06:56:38.681Z,7.58
2016-10-10T06:57:39.018Z,7.55
2016-10-10T06:58:39.030Z,7.72
2016-10-10T06:59:39.057Z,7.77
2016-10-10T07:00:39.054Z,7.77
2016-10-10T07:01:39.088Z,7.87
2016-10-10T07:02:39.130Z,7.8
2016-10-10T07:03:39.101Z,7.88
2016-10-10T07:04:39.181Z,8.03
2016-10-10T07:05:39.129Z,8.05
2016-10-10T07:06:39.189Z,8.16
2016-10-10T07:07:39.171Z,8.16
2016-10-10T07:08:38.875Z,8.34
2016-10-10T07:09:38.899Z,8.31
2016-10-10T07:10:39.229Z,8.32
2016-10-10T07:11:38.917Z,8.34
2016-10-10T07:12:39.259Z,8.16
2016-10-10T07:13:39.535Z,8.24
2016-10-10T07:14:39.548Z,8.27
2016-10-10T07:15:39.562Z,8.38
2016-10-10T07:16:39.323Z,8.36
2016-10-10T07:17:39.422Z,8.36
2016-10-10T07:18:39.256Z,8.42
2016-10-10T07:19:39.575Z,8.42
2016-10-10T07:20:39.588Z,8.41
2016-10-10T07:21:39.592Z,8.5
2016-10-10T07:22:39.408Z,8.57
2016-10-10T07:23:39.315Z,8.66
2016-10-10T07:24:39.662Z,8.72
2016-10-10T07:25:39.640Z,8.84
2016-10-10T07:26:39.890Z,8.87
2016-10-10T07:27:39.747Z,9
2016-10-10T07:28:39.690Z,9.11
2016-10-10T07:29:39.717Z,9.18
2016-10-10T07:30:40.009Z,9.29
2016-10-10T07:31:39.374Z,9.4
2016-10-10T07:32:39.348Z,9.49
2016-10-10T07:33:39.777Z,9.58
2016-10-10T07:34:39.658Z,9.7
2016-10-10T07:35:39.767Z,9.69
2016-10-10T07:36:39.688Z,9.85
2016-10-10T07:37:39.687Z,9.87
2016-10-10T07:38:39.720Z,9.95
2016-10-10T07:39:39.757Z,9.97
2016-10-10T07:40:39.765Z,10.07
2016-10-10T07:41:39.553Z,10.06
2016-10-10T07:42:39.158Z,10.07
2016-10-10T07:43:39.549Z,10.15
2016-10-10T07:44:39.936Z,10.17
2016-10-10T07:45:39.849Z,10.28
2016-10-10T07:46:40.083Z,10.36
2016-10-10T07:47:39.880Z,10.36
2016-10-10T07:48:39.950Z,10.39
2016-10-10T07:49:39.599Z,10.53
2016-10-10T07:50:39.926Z,10.64
2016-10-10T07:51:39.974Z,10.64
2016-10-10T07:52:39.974Z,10.69
2016-10-10T07:53:39.697Z,10.62
2016-10-10T07:54:40.002Z,10.75
2016-10-10T07:55:40.025Z,10.8
2016-10-10T07:56:40.102Z,10.76
2016-10-10T07:57:40.206Z,10.82
2016-10-10T07:58:40.228Z,10.92
2016-10-10T07:59:39.788Z,10.94
2016-10-10T08:00:39.838Z,11.05
2016-10-10T08:01:40.140Z,11.08
2016-10-10T08:02:40.155Z,11.05
2016-10-10T08:03:40.153Z,11.15
2016-10-10T08:04:40.177Z,10.92
2016-10-10T08:05:40.218Z,11
2016-10-10T08:06:40.226Z,10.95
2016-10-10T08:07:40.235Z,11.01
2016-10-10T08:08:39.968Z,11.04
2016-10-10T08:09:40.070Z,11.13
2016-10-10T08:10:39.984Z,11
2016-10-10T08:11:40.315Z,11.08
2016-10-10T08:12:40.343Z,11
2016-10-10T08:13:40.436Z,10.98
2016-10-10T08:14:40.377Z,10.92
2016-10-10T08:15:40.098Z,10.86
2016-10-10T08:16:40.438Z,11.01
2016-10-10T08:17:40.434Z,10.98
2016-10-10T08:18:40.454Z,11.13
2016-10-10T08:19:40.481Z,10.95
2016-10-10T08:20:40.169Z,10.95
2016-10-10T08:21:40.516Z,11.04
2016-10-10T08:22:40.539Z,10.95
2016-10-10T08:23:40.548Z,10.95
2016-10-10T08:24:40.626Z,11.13
2016-10-10T08:25:40.586Z,11.23
2016-10-10T08:26:40.657Z,11.35
2016-10-10T08:27:40.647Z,11.34
2016-10-10T08:28:40.651Z,11.35
2016-10-10T08:29:40.673Z,11.41
2016-10-10T08:30:40.929Z,11.6
2016-10-10T08:31:40.710Z,11.56
2016-10-10T08:32:40.715Z,11.62
2016-10-10T08:33:40.748Z,11.68
2016-10-10T08:34:40.756Z,11.73
2016-10-10T08:35:40.183Z,11.91
2016-10-10T08:36:40.785Z,11.95
2016-10-10T08:37:40.567Z,12.15
2016-10-10T08:38:40.526Z,12.17
2016-10-10T08:39:40.858Z,12.32
2016-10-10T08:40:40.569Z,12.4
2016-10-10T08:41:40.584Z,12.62
2016-10-10T08:42:40.916Z,12.73
2016-10-10T08:43:40.625Z,12.72
2016-10-10T08:44:40.635Z,12.93
2016-10-10T08:45:40.993Z,12.87
2016-10-10T08:46:41.078Z,12.93
2016-10-10T08:47:40.707Z,13.09
2016-10-10T08:48:40.737Z,13.17
2016-10-10T08:49:41.057Z,13.16
2016-10-10T08:50:41.087Z,13.26
2016-10-10T08:51:41.107Z,13.39
2016-10-10T08:52:40.801Z,13.47
2016-10-10T08:53:40.833Z,13.55
2016-10-10T08:54:41.153Z,13.4
2016-10-10T08:55:40.878Z,13.39
2016-10-10T08:56:41.195Z,13.16
2016-10-10T08:57:40.587Z,12.93
2016-10-10T08:58:40.940Z,12.91
2016-10-10T08:59:41.313Z,13.17
2016-10-10T09:00:41.384Z,13.33
2016-10-10T09:01:41.290Z,13.61
2016-10-10T09:02:41.332Z,13.73
2016-10-10T09:03:41.029Z,13.85
2016-10-10T09:04:41.349Z,14.01
2016-10-10T09:05:41.385Z,14.11
2016-10-10T09:06:41.404Z,14.19
2016-10-10T09:07:41.109Z,14.08
2016-10-10T09:08:41.437Z,14.28
2016-10-10T09:09:41.454Z,14.2
2016-10-10T09:10:41.166Z,14.05
2016-10-10T09:11:41.208Z,14.01
2016-10-10T09:12:41.573Z,13.94
2016-10-10T09:13:41.560Z,13.89
2016-10-10T09:14:41.246Z,13.94
2016-10-10T09:15:41.592Z,13.97
2016-10-10T09:16:41.618Z,14.12
2016-10-10T09:17:41.624Z,14.23
2016-10-10T09:18:41.364Z,14.43
2016-10-10T09:19:41.378Z,14.49
2016-10-10T09:20:41.372Z,14.53
2016-10-10T09:21:41.728Z,14.52
2016-10-10T09:22:41.528Z,14.56
2016-10-10T09:23:41.449Z,14.3
2016-10-10T09:24:41.808Z,14.25
2016-10-10T09:25:41.483Z,14.12
2016-10-10T09:26:41.818Z,13.67
2016-10-10T09:27:41.848Z,13.3
2016-10-10T09:28:41.884Z,12.81
2016-10-10T09:29:41.881Z,12.54
2016-10-10T09:30:41.896Z,12.29
2016-10-10T09:31:41.919Z,12.15
2016-10-10T09:32:41.637Z,12.21
2016-10-10T09:33:41.655Z,12.28
2016-10-10T09:34:41.695Z,12.14
2016-10-10T09:35:41.695Z,12.15
2016-10-10T09:36:41.718Z,12.2
2016-10-10T09:37:41.753Z,12.15
2016-10-10T09:38:42.171Z,12.03
2016-10-10T09:39:42.229Z,12.14
2016-10-10T09:40:42.121Z,12.07
2016-10-10T09:41:41.842Z,12.07
2016-10-10T09:42:42.157Z,12.11
2016-10-10T09:43:42.168Z,12.02
2016-10-10T09:44:42.178Z,12.1
2016-10-10T09:45:42.219Z,11.95
2016-10-10T09:46:41.942Z,12.02
2016-10-10T09:47:41.990Z,11.96
2016-10-10T09:48:42.288Z,11.93
2016-10-10T09:49:42.099Z,11.68
2016-10-10T09:50:42.407Z,11.76
2016-10-10T09:51:42.435Z,11.76
2016-10-10T09:52:42.358Z,11.74
2016-10-10T09:53:42.386Z,11.73
2016-10-10T09:54:42.389Z,11.67
2016-10-10T09:55:42.098Z,11.65
2016-10-10T09:57:07.458Z,11.74
2016-10-10T09:57:42.456Z,11.76
2016-10-10T09:58:42.166Z,11.8
2016-10-10T09:59:42.489Z,11.7
2016-10-10T10:00:42.517Z,11.74
2016-10-10T10:01:42.229Z,11.71
2016-10-10T10:02:42.570Z,11.67
2016-10-10T10:03:42.565Z,11.59
2016-10-10T10:04:42.738Z,11.68
2016-10-10T10:05:42.296Z,11.62
2016-10-10T10:06:42.625Z,11.77
2016-10-10T10:07:42.659Z,11.81
2016-10-10T10:08:42.677Z,11.88
2016-10-10T10:09:42.379Z,11.81
2016-10-10T10:10:42.708Z,11.86
2016-10-10T10:11:42.727Z,11.95
2016-10-10T10:12:42.745Z,11.95
2016-10-10T10:13:42.897Z,12.1
2016-10-10T10:14:42.788Z,12.08
2016-10-10T10:15:42.817Z,12.12
2016-10-10T10:16:42.839Z,12.15
2016-10-10T10:17:42.859Z,12.12
2016-10-10T10:18:42.857Z,12.15
2016-10-10T10:19:42.871Z,12.3
2016-10-10T10:20:42.884Z,12.36
2016-10-10T10:21:42.938Z,12.36
2016-10-10T10:22:42.940Z,12.29
2016-10-10T10:23:42.964Z,12.28
2016-10-10T10:24:42.993Z,12.3
2016-10-10T10:25:42.687Z,12.43
2016-10-10T10:26:43.022Z,12.45
2016-10-10T10:27:43.037Z,12.51
2016-10-10T10:28:43.056Z,12.47
2016-10-10T10:29:43.085Z,12.37
2016-10-10T10:30:43.107Z,12.35
2016-10-10T10:31:43.110Z,12.33
2016-10-10T10:32:42.828Z,12.29
2016-10-10T10:33:43.157Z,12.3
2016-10-10T10:34:43.165Z,12.32
2016-10-10T10:35:43.197Z,12.4
2016-10-10T10:36:43.227Z,12.45
2016-10-10T10:37:42.929Z,12.51
2016-10-10T10:38:43.258Z,12.63
2016-10-10T10:39:43.407Z,12.65
2016-10-10T10:40:43.292Z,12.81
2016-10-10T10:41:43.376Z,12.8
2016-10-10T10:42:43.326Z,12.94
2016-10-10T10:43:43.424Z,12.98
2016-10-10T10:44:43.366Z,13.21
2016-10-10T10:45:43.396Z,13.45
2016-10-10T10:46:43.406Z,13.78
2016-10-10T10:47:43.454Z,14.04
2016-10-10T10:48:43.453Z,14.37
2016-10-10T10:49:43.484Z,14.56
2016-10-10T10:50:43.497Z,14.55
2016-10-10T10:51:43.526Z,14.74
2016-10-10T10:52:43.588Z,14.89
2016-10-10T10:53:43.541Z,14.96
2016-10-10T10:54:43.726Z,15.18
2016-10-10T10:55:43.596Z,15.25
2016-10-10T10:56:43.612Z,15.39
2016-10-10T10:57:43.627Z,15.52
2016-10-10T10:58:43.677Z,15.84
2016-10-10T10:59:43.681Z,16.18
2016-10-10T11:00:43.383Z,16.44
2016-10-10T11:01:43.717Z,16.61
2016-10-10T11:02:43.756Z,16.59
2016-10-10T11:03:43.463Z,16.65
2016-10-10T11:04:43.527Z,16.57
2016-10-10T11:05:43.484Z,16.4
2016-10-10T11:06:43.833Z,16.41
2016-10-10T11:07:43.861Z,16.55
2016-10-10T11:08:43.876Z,16.68
2016-10-10T11:09:43.916Z,16.55
2016-10-10T11:10:43.937Z,16.64
2016-10-10T11:11:43.946Z,16.57
2016-10-10T11:12:44.007Z,16.25
2016-10-10T11:13:44.037Z,15.98
2016-10-10T11:14:43.403Z,15.69
2016-10-10T11:15:44.027Z,15.51
2016-10-10T11:16:44.157Z,15.35
2016-10-10T11:17:43.826Z,15.47
2016-10-10T11:18:44.104Z,15.43
2016-10-10T11:19:44.133Z,15.14
2016-10-10T11:20:44.155Z,15.04
2016-10-10T11:21:43.885Z,14.9
2016-10-10T11:22:44.204Z,14.71
2016-10-10T11:23:44.194Z,14.66
2016-10-10T11:24:44.247Z,14.58
2016-10-10T11:25:44.251Z,14.36
2016-10-10T11:26:43.971Z,14.2
2016-10-10T11:27:44.434Z,14.34
2016-10-10T11:28:44.375Z,14.05
2016-10-10T11:29:44.440Z,14.03
2016-10-10T11:30:44.429Z,13.95
2016-10-10T11:31:44.386Z,14.07
2016-10-10T11:32:44.447Z,14.22
2016-10-10T11:33:44.435Z,14.13
2016-10-10T11:34:44.456Z,14.15
2016-10-10T11:35:44.474Z,14.19
2016-10-10T11:36:44.510Z,14.11
2016-10-10T11:37:44.535Z,14.05
2016-10-10T11:38:44.565Z,14.19
2016-10-10T11:39:44.645Z,14.28
2016-10-10T11:40:44.674Z,14.2
2016-10-10T11:41:44.659Z,14.37
2016-10-10T11:42:44.633Z,14.19
2016-10-10T11:43:44.643Z,14.22
2016-10-10T11:44:44.676Z,14.18
2016-10-10T11:45:44.698Z,14.15
2016-10-10T11:46:44.726Z,14.26
2016-10-10T11:47:44.755Z,14.38
2016-10-10T11:48:44.764Z,14.3
2016-10-10T11:49:44.795Z,14.31
2016-10-10T11:50:44.806Z,14.34
2016-10-10T11:51:44.834Z,14.49
2016-10-10T11:52:44.849Z,14.62
2016-10-10T11:53:44.975Z,14.79
2016-10-10T11:54:44.573Z,14.67
2016-10-10T11:55:44.907Z,14.79
2016-10-10T11:56:44.925Z,14.79
2016-10-10T11:57:44.968Z,14.73
2016-10-10T11:58:44.995Z,14.52
2016-10-10T11:59:45.009Z,14.43
2016-10-10T12:00:45.024Z,14.61
2016-10-10T12:01:44.734Z,14.44
2016-10-10T12:02:45.068Z,14.36
2016-10-10T12:03:45.082Z,14.4
2016-10-10T12:04:45.094Z,14.38
2016-10-10T12:05:45.148Z,14.41
2016-10-10T12:06:44.850Z,14.33
2016-10-10T12:07:45.184Z,14.53
2016-10-10T12:08:45.197Z,14.41
2016-10-10T12:09:45.216Z,14.48
2016-10-10T12:10:45.246Z,14.44
2016-10-10T12:11:44.961Z,14.52
2016-10-10T12:12:44.975Z,14.61
2016-10-10T12:13:45.016Z,14.7
2016-10-10T12:14:45.348Z,14.55
2016-10-10T12:15:45.377Z,14.34
2016-10-10T12:16:45.386Z,14.37
2016-10-10T12:17:45.419Z,14.43
2016-10-10T12:18:45.436Z,14.71
2016-10-10T12:19:45.510Z,14.63
2016-10-10T12:20:45.146Z,14.92
2016-10-10T12:21:45.484Z,15.14
2016-10-10T12:22:45.189Z,15.27
2016-10-10T12:23:45.517Z,15.35
2016-10-10T12:24:45.548Z,15.43
2016-10-10T12:25:45.634Z,15.25
2016-10-10T12:26:45.589Z,15.39
2016-10-10T12:27:45.327Z,15.33
2016-10-10T12:28:45.697Z,15.33
2016-10-10T12:29:45.672Z,15.36
2016-10-10T12:30:45.674Z,15.62
2016-10-10T12:31:45.719Z,15.73
2016-10-10T12:32:45.417Z,15.83
2016-10-10T12:33:45.449Z,16.02
2016-10-10T12:34:45.472Z,15.7
2016-10-10T12:35:45.808Z,15.32
2016-10-10T12:36:45.949Z,15.1
2016-10-10T12:37:45.841Z,14.92
2016-10-10T12:38:45.666Z,15.04
2016-10-10T12:39:45.877Z,15.17
2016-10-10T12:40:46.010Z,15.32
2016-10-10T12:41:45.932Z,15.37
2016-10-10T12:42:45.976Z,15.14
2016-10-10T12:43:45.988Z,15.22
2016-10-10T12:44:46.006Z,15.45
2016-10-10T12:45:46.032Z,15.54
2016-10-10T12:46:46.051Z,15.75
2016-10-10T12:47:46.064Z,16.02
2016-10-10T12:48:45.771Z,16.02
2016-10-10T12:49:45.819Z,16.17
2016-10-10T12:50:46.164Z,15.99
2016-10-10T12:51:46.153Z,15.54
2016-10-10T12:52:46.248Z,15.29
2016-10-10T12:53:46.216Z,15.37
2016-10-10T12:54:46.216Z,15.37
2016-10-10T12:55:46.289Z,15.3
2016-10-10T12:56:46.275Z,15.45
2016-10-10T12:57:46.275Z,15.66
2016-10-10T12:58:46.331Z,15.6
2016-10-10T12:59:46.026Z,15.6
2016-10-10T13:00:46.395Z,15.51
2016-10-10T13:01:46.385Z,15.57
2016-10-10T13:02:46.411Z,15.52
2016-10-10T13:03:46.437Z,15.69
2016-10-10T13:04:46.459Z,15.81
2016-10-10T13:05:46.570Z,15.88
2016-10-10T13:06:46.180Z,16.13
2016-10-10T13:07:46.509Z,16.22
2016-10-10T13:08:46.557Z,15.87
2016-10-10T13:09:46.247Z,15.73
2016-10-10T13:10:46.575Z,15.63